sensor_id;sensor_type;location;lat;lon;timestamp;P1;durP1;ratioP1;P2;durP2;ratioP2
3817;SDS011;1924;48.078;11.516;2024-02-23T00:01:40;31.00;;;0.80;;
3817;SDS011;1924;48.078;11.516;2024-02-23T00:04:06;31.10;;;0.80;;
3817;SDS011;1924;48.078;11.516;2024-02-23T00:06:34;31.00;;;0.80;;
3817;SDS011;1924;48.078;11.516;2024-02-23T00:09:01;31.10;;;0.80;;
3817;SDS011;1924;48.078;11.516;2024-02-23T00:11:29;30.93;;;0.80;;
3817;SDS011;1924;48.078;11.516;2024-02-23T00:13:57;30.87;;;0.80;;
3817;SDS011;1924;48.078;11.516;2024-02-23T00:16:24;30.90;;;0.80;;
3817;SDS011;1924;48.078;11.516;2024-02-23T00:18:51;30.90;;;0.80;;
3817;SDS011;1924;48.078;11.516;2024-02-23T00:21:18;30.90;;;0.80;;
3817;SDS011;1924;48.078;11.516;2024-02-23T00:23:45;30.80;;;0.80;;
3817;SDS011;1924;48.078;11.516;2024-02-23T00:26:11;30.80;;;0.80;;
3817;SDS011;1924;48.078;11.516;2024-02-23T00:28:39;30.80;;;0.80;;
3817;SDS011;1924;48.078;11.516;2024-02-23T00:31:06;30.73;;;0.80;;
3817;SDS011;1924;48.078;11.516;2024-02-23T00:33:33;30.80;;;0.80;;
3817;SDS011;1924;48.078;11.516;2024-02-23T00:36:00;30.80;;;0.80;;
3817;SDS011;1924;48.078;11.516;2024-02-23T00:38:26;30.70;;;0.80;;
3817;SDS011;1924;48.078;11.516;2024-02-23T00:40:53;30.90;;;0.80;;
3817;SDS011;1924;48.078;11.516;2024-02-23T00:43:20;30.70;;;0.80;;
3817;SDS011;1924;48.078;11.516;2024-02-23T00:45:48;30.80;;;0.80;;
3817;SDS011;1924;48.078;11.516;2024-02-23T00:48:14;30.53;;;0.80;;
3817;SDS011;1924;48.078;11.516;2024-02-23T00:50:41;30.70;;;0.80;;
3817;SDS011;1924;48.078;11.516;2024-02-23T00:53:09;30.80;;;0.80;;
3817;SDS011;1924;48.078;11.516;2024-02-23T00:55:35;30.60;;;0.80;;
3817;SDS011;1924;48.078;11.516;2024-02-23T00:58:02;30.50;;;0.80;;
3817;SDS011;1924;48.078;11.516;2024-02-23T01:00:29;30.70;;;0.80;;
3817;SDS011;1924;48.078;11.516;2024-02-23T01:02:57;30.60;;;0.80;;
3817;SDS011;1924;48.078;11.516;2024-02-23T01:05:25;30.47;;;0.80;;
3817;SDS011;1924;48.078;11.516;2024-02-23T01:07:52;30.60;;;0.80;;
3817;SDS011;1924;48.078;11.516;2024-02-23T01:10:18;30.60;;;0.80;;
3817;SDS011;1924;48.078;11.516;2024-02-23T05:00:54;29.90;;;0.80;;
3817;SDS011;1924;48.078;11.516;2024-02-23T05:03:21;29.77;;;0.80;;
3817;SDS011;1924;48.078;11.516;2024-02-23T05:05:48;29.80;;;0.80;;
3817;SDS011;1924;48.078;11.516;2024-02-23T05:08:18;29.90;;;0.80;;
3817;SDS011;1924;48.078;11.516;2024-02-23T05:10:45;29.80;;;0.80;;
3817;SDS011;1924;48.078;11.516;2024-02-23T05:13:12;29.80;;;0.80;;
3817;SDS011;1924;48.078;11.516;2024-02-23T05:15:39;29.90;;;0.80;;
3817;SDS011;1924;48.078;11.516;2024-02-23T05:18:07;29.80;;;0.80;;
3817;SDS011;1924;48.078;11.516;2024-02-23T05:20:34;30.00;;;0.80;;
3817;SDS011;1924;48.078;11.516;2024-02-23T05:23:01;29.87;;;0.80;;
3817;SDS011;1924;48.078;11.516;2024-02-23T05:25:28;29.90;;;0.80;;
3817;SDS011;1924;48.078;11.516;2024-02-23T05:27:54;29.90;;;0.80;;
3817;SDS011;1924;48.078;11.516;2024-02-23T05:30:21;29.90;;;0.80;;
3817;SDS011;1924;48.078;11.516;2024-02-23T05:32:48;29.80;;;0.80;;
3817;SDS011;1924;48.078;11.516;2024-02-23T05:35:16;29.90;;;0.80;;
3817;SDS011;1924;48.078;11.516;2024-02-23T05:37:43;29.77;;;0.80;;
3817;SDS011;1924;48.078;11.516;2024-02-23T05:40:10;29.80;;;0.80;;
3817;SDS011;1924;48.078;11.516;2024-02-23T05:42:37;29.57;;;0.80;;
3817;SDS011;1924;48.078;11.516;2024-02-23T05:45:04;29.90;;;0.80;;
3817;SDS011;1924;48.078;11.516;2024-02-23T05:47:34;29.80;;;0.80;;
3817;SDS011;1924;48.078;11.516;2024-02-23T05:50:01;29.80;;;0.80;;
3817;SDS011;1924;48.078;11.516;2024-02-23T05:52:29;29.77;;;0.80;;
3817;SDS011;1924;48.078;11.516;2024-02-23T05:54:57;29.70;;;0.80;;
3817;SDS011;1924;48.078;11.516;2024-02-23T05:57:25;29.87;;;0.80;;
3817;SDS011;1924;48.078;11.516;2024-02-23T05:59:51;29.90;;;0.80;;
3817;SDS011;1924;48.078;11.516;2024-02-23T06:02:18;29.70;;;0.80;;
3817;SDS011;1924;48.078;11.516;2024-02-23T06:04:45;29.80;;;0.80;;
3817;SDS011;1924;48.078;11.516;2024-02-23T06:07:12;29.80;;;0.80;;
3817;SDS011;1924;48.078;11.516;2024-02-23T06:09:42;29.80;;;0.80;;
3817;SDS011;1924;48.078;11.516;2024-02-23T06:12:08;29.70;;;0.80;;
3817;SDS011;1924;48.078;11.516;2024-02-23T06:14:35;29.90;;;0.80;;
3817;SDS011;1924;48.078;11.516;2024-02-23T06:17:02;29.80;;;0.80;;
3817;SDS011;1924;48.078;11.516;2024-02-23T06:19:31;29.70;;;0.80;;
3817;SDS011;1924;48.078;11.516;2024-02-23T06:21:58;29.77;;;0.80;;
3817;SDS011;1924;48.078;11.516;2024-02-23T06:24:25;29.63;;;0.80;;
3817;SDS011;1924;48.078;11.516;2024-02-23T06:26:53;29.60;;;0.80;;
3817;SDS011;1924;48.078;11.516;2024-02-23T06:29:19;29.60;;;0.80;;
3817;SDS011;1924;48.078;11.516;2024-02-23T06:31:46;29.80;;;0.80;;
3817;SDS011;1924;48.078;11.516;2024-02-23T06:34:14;29.80;;;0.80;;
3817;SDS011;1924;48.078;11.516;2024-02-23T06:36:41;29.70;;;0.80;;
3817;SDS011;1924;48.078;11.516;2024-02-23T06:39:08;29.80;;;0.80;;
3817;SDS011;1924;48.078;11.516;2024-02-23T06:41:35;29.57;;;0.80;;
3817;SDS011;1924;48.078;11.516;2024-02-23T06:44:05;29.57;;;0.80;;
3817;SDS011;1924;48.078;11.516;2024-02-23T06:46:32;29.70;;;0.80;;
3817;SDS011;1924;48.078;11.516;2024-02-23T06:48:58;29.67;;;0.80;;
3817;SDS011;1924;48.078;11.516;2024-02-23T06:51:25;29.60;;;0.80;;
3817;SDS011;1924;48.078;11.516;2024-02-23T06:53:52;29.50;;;0.80;;
3817;SDS011;1924;48.078;11.516;2024-02-23T06:56:19;29.50;;;0.80;;
3817;SDS011;1924;48.078;11.516;2024-02-23T06:58:47;29.70;;;0.80;;
3817;SDS011;1924;48.078;11.516;2024-02-23T07:01:15;29.70;;;0.80;;
3817;SDS011;1924;48.078;11.516;2024-02-23T07:03:41;29.40;;;0.80;;
3817;SDS011;1924;48.078;11.516;2024-02-23T07:06:10;29.40;;;0.80;;
3817;SDS011;1924;48.078;11.516;2024-02-23T07:08:37;29.70;;;0.80;;
3817;SDS011;1924;48.078;11.516;2024-02-23T07:11:03;29.70;;;0.80;;
3817;SDS011;1924;48.078;11.516;2024-02-23T07:13:31;29.63;;;0.80;;
3817;SDS011;1924;48.078;11.516;2024-02-23T07:15:59;29.50;;;0.80;;
3817;SDS011;1924;48.078;11.516;2024-02-23T07:18:28;29.50;;;0.80;;
3817;SDS011;1924;48.078;11.516;2024-02-23T07:20:54;29.40;;;0.80;;
3817;SDS011;1924;48.078;11.516;2024-02-23T07:23:21;29.60;;;0.80;;
3817;SDS011;1924;48.078;11.516;2024-02-23T07:25:48;29.40;;;0.80;;
3817;SDS011;1924;48.078;11.516;2024-02-23T07:28:16;29.40;;;0.80;;
3817;SDS011;1924;48.078;11.516;2024-02-23T07:30:44;29.50;;;0.80;;
3817;SDS011;1924;48.078;11.516;2024-02-23T07:33:11;29.50;;;0.80;;
3817;SDS011;1924;48.078;11.516;2024-02-23T07:35:39;29.17;;;0.80;;
3817;SDS011;1924;48.078;11.516;2024-02-23T07:38:06;29.40;;;0.80;;
3817;SDS011;1924;48.078;11.516;2024-02-23T07:40:33;29.30;;;0.80;;
3817;SDS011;1924;48.078;11.516;2024-02-23T07:42:59;29.47;;;0.80;;
3817;SDS011;1924;48.078;11.516;2024-02-23T07:45:26;29.50;;;0.80;;
3817;SDS011;1924;48.078;11.516;2024-02-23T07:47:53;29.60;;;0.80;;
3817;SDS011;1924;48.078;11.516;2024-02-23T07:50:19;29.47;;;0.80;;
3817;SDS011;1924;48.078;11.516;2024-02-23T07:52:47;29.60;;;0.80;;
3817;SDS011;1924;48.078;11.516;2024-02-23T07:55:14;29.30;;;0.80;;
3817;SDS011;1924;48.078;11.516;2024-02-23T07:57:41;29.40;;;0.80;;
3817;SDS011;1924;48.078;11.516;2024-02-23T08:00:08;29.40;;;0.80;;
3817;SDS011;1924;48.078;11.516;2024-02-23T08:02:35;29.40;;;0.80;;
3817;SDS011;1924;48.078;11.516;2024-02-23T08:05:02;29.27;;;0.80;;
3817;SDS011;1924;48.078;11.516;2024-02-23T08:07:29;29.40;;;0.80;;
3817;SDS011;1924;48.078;11.516;2024-02-23T08:09:58;29.30;;;0.80;;
3817;SDS011;1924;48.078;11.516;2024-02-23T08:12:24;29.30;;;0.80;;
3817;SDS011;1924;48.078;11.516;2024-02-23T08:14:52;29.40;;;0.80;;
3817;SDS011;1924;48.078;11.516;2024-02-23T08:17:19;29.23;;;0.80;;
3817;SDS011;1924;48.078;11.516;2024-02-23T08:19:46;29.40;;;0.80;;
3817;SDS011;1924;48.078;11.516;2024-02-23T08:22:12;29.20;;;0.80;;
3817;SDS011;1924;48.078;11.516;2024-02-23T08:24:39;29.50;;;0.80;;
3817;SDS011;1924;48.078;11.516;2024-02-23T08:27:07;29.20;;;0.80;;
3817;SDS011;1924;48.078;11.516;2024-02-23T08:29:37;29.40;;;0.80;;
3817;SDS011;1924;48.078;11.516;2024-02-23T08:32:04;29.50;;;0.80;;
3817;SDS011;1924;48.078;11.516;2024-02-23T08:34:31;29.30;;;0.80;;
3817;SDS011;1924;48.078;11.516;2024-02-23T08:36:59;29.40;;;0.80;;
3817;SDS011;1924;48.078;11.516;2024-02-23T08:39:26;29.57;;;0.80;;
3817;SDS011;1924;48.078;11.516;2024-02-23T08:41:53;29.40;;;0.80;;
3817;SDS011;1924;48.078;11.516;2024-02-23T08:44:22;29.50;;;0.80;;
3817;SDS011;1924;48.078;11.516;2024-02-23T08:46:48;29.40;;;0.80;;
3817;SDS011;1924;48.078;11.516;2024-02-23T08:49:15;29.40;;;0.80;;
3817;SDS011;1924;48.078;11.516;2024-02-23T08:51:42;29.40;;;0.80;;
3817;SDS011;1924;48.078;11.516;2024-02-23T08:54:08;29.30;;;0.80;;
3817;SDS011;1924;48.078;11.516;2024-02-23T08:56:36;29.43;;;0.80;;
3817;SDS011;1924;48.078;11.516;2024-02-23T08:59:04;29.30;;;0.80;;
3817;SDS011;1924;48.078;11.516;2024-02-23T09:01:32;29.17;;;0.80;;
3817;SDS011;1924;48.078;11.516;2024-02-23T09:03:58;29.30;;;0.80;;
3817;SDS011;1924;48.078;11.516;2024-02-23T09:06:25;29.27;;;0.80;;
3817;SDS011;1924;48.078;11.516;2024-02-23T09:08:52;29.40;;;0.80;;
3817;SDS011;1924;48.078;11.516;2024-02-23T09:11:19;29.30;;;0.80;;
3817;SDS011;1924;48.078;11.516;2024-02-23T09:13:45;29.20;;;0.80;;
3817;SDS011;1924;48.078;11.516;2024-02-23T09:16:12;29.40;;;0.80;;
3817;SDS011;1924;48.078;11.516;2024-02-23T09:18:41;29.20;;;0.80;;
3817;SDS011;1924;48.078;11.516;2024-02-23T09:21:07;29.50;;;0.80;;
3817;SDS011;1924;48.078;11.516;2024-02-23T09:23:34;29.20;;;0.80;;
3817;SDS011;1924;48.078;11.516;2024-02-23T09:26:01;29.20;;;0.80;;
3817;SDS011;1924;48.078;11.516;2024-02-23T09:28:29;29.20;;;0.80;;
3817;SDS011;1924;48.078;11.516;2024-02-23T09:30:56;29.30;;;0.80;;
3817;SDS011;1924;48.078;11.516;2024-02-23T09:33:23;29.20;;;0.80;;
3817;SDS011;1924;48.078;11.516;2024-02-23T09:35:51;29.20;;;0.80;;
3817;SDS011;1924;48.078;11.516;2024-02-23T09:38:18;29.40;;;0.80;;
3817;SDS011;1924;48.078;11.516;2024-02-23T09:40:45;29.40;;;0.80;;
3817;SDS011;1924;48.078;11.516;2024-02-23T09:43:12;29.40;;;0.80;;
3817;SDS011;1924;48.078;11.516;2024-02-23T09:45:42;29.40;;;0.80;;
3817;SDS011;1924;48.078;11.516;2024-02-23T09:48:10;29.00;;;0.80;;
3817;SDS011;1924;48.078;11.516;2024-02-23T09:50:38;29.30;;;0.80;;
3817;SDS011;1924;48.078;11.516;2024-02-23T09:53:09;29.13;;;0.80;;
3817;SDS011;1924;48.078;11.516;2024-02-23T09:55:39;29.17;;;0.80;;
3817;SDS011;1924;48.078;11.516;2024-02-23T09:58:06;29.20;;;0.80;;
3817;SDS011;1924;48.078;11.516;2024-02-23T10:00:34;29.17;;;0.80;;
3817;SDS011;1924;48.078;11.516;2024-02-23T10:03:04;29.30;;;0.80;;
3817;SDS011;1924;48.078;11.516;2024-02-23T10:05:31;29.30;;;0.80;;
3817;SDS011;1924;48.078;11.516;2024-02-23T10:07:58;29.40;;;0.80;;
3817;SDS011;1924;48.078;11.516;2024-02-23T10:10:30;29.40;;;0.80;;
3817;SDS011;1924;48.078;11.516;2024-02-23T10:12:59;29.10;;;0.80;;
3817;SDS011;1924;48.078;11.516;2024-02-23T10:15:28;29.20;;;0.80;;
3817;SDS011;1924;48.078;11.516;2024-02-23T10:17:55;29.10;;;0.80;;
3817;SDS011;1924;48.078;11.516;2024-02-23T10:20:22;29.30;;;0.80;;
3817;SDS011;1924;48.078;11.516;2024-02-23T10:22:49;29.30;;;0.80;;
3817;SDS011;1924;48.078;11.516;2024-02-23T10:25:18;29.50;;;0.80;;
3817;SDS011;1924;48.078;11.516;2024-02-23T10:27:46;29.40;;;0.80;;
3817;SDS011;1924;48.078;11.516;2024-02-23T10:30:12;29.20;;;0.80;;
3817;SDS011;1924;48.078;11.516;2024-02-23T10:32:40;29.50;;;0.80;;
3817;SDS011;1924;48.078;11.516;2024-02-23T10:35:08;29.30;;;0.80;;
3817;SDS011;1924;48.078;11.516;2024-02-23T10:37:36;29.30;;;0.80;;
3817;SDS011;1924;48.078;11.516;2024-02-23T10:40:04;29.30;;;0.80;;
3817;SDS011;1924;48.078;11.516;2024-02-23T10:42:35;29.30;;;0.80;;
3817;SDS011;1924;48.078;11.516;2024-02-23T10:45:05;29.40;;;0.80;;
3817;SDS011;1924;48.078;11.516;2024-02-23T10:47:33;29.40;;;0.80;;
3817;SDS011;1924;48.078;11.516;2024-02-23T10:50:01;29.30;;;0.80;;
3817;SDS011;1924;48.078;11.516;2024-02-23T10:52:29;29.30;;;0.80;;
3817;SDS011;1924;48.078;11.516;2024-02-23T10:54:57;29.43;;;0.80;;
3817;SDS011;1924;48.078;11.516;2024-02-23T10:57:29;29.20;;;0.80;;
3817;SDS011;1924;48.078;11.516;2024-02-23T10:59:56;29.50;;;0.80;;
3817;SDS011;1924;48.078;11.516;2024-02-23T11:02:26;29.40;;;0.80;;
3817;SDS011;1924;48.078;11.516;2024-02-23T11:04:56;29.30;;;0.80;;
3817;SDS011;1924;48.078;11.516;2024-02-23T11:07:25;29.40;;;0.80;;
3817;SDS011;1924;48.078;11.516;2024-02-23T11:09:53;29.20;;;0.80;;
3817;SDS011;1924;48.078;11.516;2024-02-23T11:12:24;29.10;;;0.80;;
3817;SDS011;1924;48.078;11.516;2024-02-23T11:14:51;29.20;;;0.80;;
3817;SDS011;1924;48.078;11.516;2024-02-23T11:17:25;29.40;;;0.80;;
3817;SDS011;1924;48.078;11.516;2024-02-23T11:19:54;29.40;;;0.80;;
3817;SDS011;1924;48.078;11.516;2024-02-23T11:22:24;29.30;;;0.80;;
3817;SDS011;1924;48.078;11.516;2024-02-23T11:24:52;29.50;;;0.80;;
3817;SDS011;1924;48.078;11.516;2024-02-23T11:27:19;29.50;;;0.80;;
3817;SDS011;1924;48.078;11.516;2024-02-23T11:29:46;29.30;;;0.80;;
3817;SDS011;1924;48.078;11.516;2024-02-23T11:32:14;29.27;;;0.80;;
3817;SDS011;1924;48.078;11.516;2024-02-23T11:34:52;29.30;;;0.80;;
3817;SDS011;1924;48.078;11.516;2024-02-23T11:37:20;29.30;;;0.80;;
3817;SDS011;1924;48.078;11.516;2024-02-23T11:39:47;29.50;;;0.80;;
3817;SDS011;1924;48.078;11.516;2024-02-23T11:42:14;29.30;;;0.80;;
3817;SDS011;1924;48.078;11.516;2024-02-23T11:44:41;29.20;;;0.80;;
3817;SDS011;1924;48.078;11.516;2024-02-23T11:47:08;29.20;;;0.80;;
3817;SDS011;1924;48.078;11.516;2024-02-23T11:49:35;29.30;;;0.80;;
3817;SDS011;1924;48.078;11.516;2024-02-23T11:52:03;29.13;;;0.80;;
3817;SDS011;1924;48.078;11.516;2024-02-23T11:54:30;29.30;;;0.80;;
3817;SDS011;1924;48.078;11.516;2024-02-23T11:56:57;29.17;;;0.80;;
3817;SDS011;1924;48.078;11.516;2024-02-23T11:59:25;29.30;;;0.80;;
3817;SDS011;1924;48.078;11.516;2024-02-23T12:01:51;29.13;;;0.80;;
3817;SDS011;1924;48.078;11.516;2024-02-23T12:04:18;29.30;;;0.80;;
3817;SDS011;1924;48.078;11.516;2024-02-23T12:06:45;29.20;;;0.80;;
3817;SDS011;1924;48.078;11.516;2024-02-23T12:09:13;29.20;;;0.80;;
3817;SDS011;1924;48.078;11.516;2024-02-23T12:11:41;29.20;;;0.80;;
3817;SDS011;1924;48.078;11.516;2024-02-23T12:14:08;29.20;;;0.80;;
3817;SDS011;1924;48.078;11.516;2024-02-23T12:16:35;29.00;;;0.80;;
3817;SDS011;1924;48.078;11.516;2024-02-23T12:19:01;29.00;;;0.80;;
3817;SDS011;1924;48.078;11.516;2024-02-23T12:21:28;29.30;;;0.80;;
3817;SDS011;1924;48.078;11.516;2024-02-23T12:23:55;29.10;;;0.80;;
3817;SDS011;1924;48.078;11.516;2024-02-23T12:26:23;29.10;;;0.80;;
3817;SDS011;1924;48.078;11.516;2024-02-23T12:28:50;29.20;;;0.80;;
3817;SDS011;1924;48.078;11.516;2024-02-23T12:31:23;29.27;;;0.80;;
3817;SDS011;1924;48.078;11.516;2024-02-23T12:33:50;29.40;;;0.80;;
3817;SDS011;1924;48.078;11.516;2024-02-23T12:36:17;29.30;;;0.80;;
3817;SDS011;1924;48.078;11.516;2024-02-23T12:38:44;29.70;;;0.90;;
3817;SDS011;1924;48.078;11.516;2024-02-23T12:41:10;29.07;;;0.80;;
3817;SDS011;1924;48.078;11.516;2024-02-23T12:43:39;28.90;;;0.80;;
3817;SDS011;1924;48.078;11.516;2024-02-23T12:46:05;29.10;;;0.80;;
3817;SDS011;1924;48.078;11.516;2024-02-23T12:48:33;29.17;;;0.80;;
3817;SDS011;1924;48.078;11.516;2024-02-23T12:51:00;28.97;;;0.80;;
3817;SDS011;1924;48.078;11.516;2024-02-23T12:53:31;29.10;;;0.80;;
3817;SDS011;1924;48.078;11.516;2024-02-23T12:56:01;29.10;;;0.80;;
3817;SDS011;1924;48.078;11.516;2024-02-23T12:58:28;28.90;;;0.80;;
3817;SDS011;1924;48.078;11.516;2024-02-23T13:00:56;29.00;;;0.80;;
3817;SDS011;1924;48.078;11.516;2024-02-23T13:03:24;28.90;;;0.80;;
3817;SDS011;1924;48.078;11.516;2024-02-23T13:05:53;28.90;;;0.80;;
3817;SDS011;1924;48.078;11.516;2024-02-23T13:08:20;28.90;;;0.80;;
3817;SDS011;1924;48.078;11.516;2024-02-23T13:10:47;28.90;;;0.80;;
3817;SDS011;1924;48.078;11.516;2024-02-23T13:13:14;29.00;;;0.80;;
3817;SDS011;1924;48.078;11.516;2024-02-23T13:15:42;29.00;;;0.80;;
3817;SDS011;1924;48.078;11.516;2024-02-23T13:18:10;29.00;;;0.80;;
3817;SDS011;1924;48.078;11.516;2024-02-23T13:20:37;29.00;;;0.80;;
3817;SDS011;1924;48.078;11.516;2024-02-23T13:23:04;28.97;;;0.80;;
3817;SDS011;1924;48.078;11.516;2024-02-23T13:25:33;28.80;;;0.80;;
3817;SDS011;1924;48.078;11.516;2024-02-23T13:28:00;29.00;;;0.80;;
3817;SDS011;1924;48.078;11.516;2024-02-23T13:30:26;28.80;;;0.80;;
3817;SDS011;1924;48.078;11.516;2024-02-23T13:32:53;28.97;;;0.80;;
3817;SDS011;1924;48.078;11.516;2024-02-23T13:35:21;28.90;;;0.80;;
3817;SDS011;1924;48.078;11.516;2024-02-23T13:37:48;29.00;;;0.80;;
3817;SDS011;1924;48.078;11.516;2024-02-23T13:40:15;28.90;;;0.80;;
3817;SDS011;1924;48.078;11.516;2024-02-23T13:42:42;29.00;;;0.80;;
3817;SDS011;1924;48.078;11.516;2024-02-23T13:45:11;28.90;;;0.80;;
3817;SDS011;1924;48.078;11.516;2024-02-23T13:47:39;28.97;;;0.80;;
3817;SDS011;1924;48.078;11.516;2024-02-23T13:50:06;28.90;;;0.80;;
3817;SDS011;1924;48.078;11.516;2024-02-23T13:52:35;28.90;;;0.80;;
3817;SDS011;1924;48.078;11.516;2024-02-23T13:55:02;29.20;;;0.80;;
3817;SDS011;1924;48.078;11.516;2024-02-23T13:57:30;29.00;;;0.80;;
3817;SDS011;1924;48.078;11.516;2024-02-23T13:59:57;28.87;;;0.80;;
3817;SDS011;1924;48.078;11.516;2024-02-23T14:02:25;29.10;;;0.80;;
3817;SDS011;1924;48.078;11.516;2024-02-23T14:04:54;29.00;;;0.80;;
3817;SDS011;1924;48.078;11.516;2024-02-23T14:07:26;28.97;;;0.80;;
3817;SDS011;1924;48.078;11.516;2024-02-23T14:09:54;28.97;;;0.80;;
3817;SDS011;1924;48.078;11.516;2024-02-23T14:12:21;29.00;;;0.80;;
3817;SDS011;1924;48.078;11.516;2024-02-23T14:14:47;29.10;;;0.80;;
3817;SDS011;1924;48.078;11.516;2024-02-23T14:17:14;28.97;;;0.80;;
3817;SDS011;1924;48.078;11.516;2024-02-23T14:19:41;29.10;;;0.80;;
3817;SDS011;1924;48.078;11.516;2024-02-23T14:22:08;29.10;;;0.80;;
3817;SDS011;1924;48.078;11.516;2024-02-23T14:24:35;29.00;;;0.80;;
3817;SDS011;1924;48.078;11.516;2024-02-23T14:27:03;28.80;;;0.80;;
3817;SDS011;1924;48.078;11.516;2024-02-23T14:29:30;29.20;;;0.80;;
3817;SDS011;1924;48.078;11.516;2024-02-23T14:31:58;29.20;;;0.80;;
3817;SDS011;1924;48.078;11.516;2024-02-23T14:34:26;28.97;;;0.80;;
3817;SDS011;1924;48.078;11.516;2024-02-23T14:36:54;29.17;;;0.80;;
3817;SDS011;1924;48.078;11.516;2024-02-23T14:39:21;29.10;;;0.80;;
3817;SDS011;1924;48.078;11.516;2024-02-23T14:41:48;29.10;;;0.80;;
3817;SDS011;1924;48.078;11.516;2024-02-23T14:44:16;29.10;;;0.80;;
3817;SDS011;1924;48.078;11.516;2024-02-23T14:46:43;29.10;;;0.80;;
3817;SDS011;1924;48.078;11.516;2024-02-23T14:49:09;29.17;;;0.80;;
3817;SDS011;1924;48.078;11.516;2024-02-23T14:51:36;29.20;;;0.80;;
3817;SDS011;1924;48.078;11.516;2024-02-23T14:54:03;29.20;;;0.80;;
3817;SDS011;1924;48.078;11.516;2024-02-23T14:56:30;29.07;;;0.80;;
3817;SDS011;1924;48.078;11.516;2024-02-23T14:58:57;29.00;;;0.80;;
3817;SDS011;1924;48.078;11.516;2024-02-23T15:01:27;29.00;;;0.80;;
3817;SDS011;1924;48.078;11.516;2024-02-23T15:03:54;29.00;;;0.80;;
3817;SDS011;1924;48.078;11.516;2024-02-23T15:06:21;29.00;;;0.80;;
3817;SDS011;1924;48.078;11.516;2024-02-23T15:08:49;28.90;;;0.80;;
3817;SDS011;1924;48.078;11.516;2024-02-23T15:11:15;29.10;;;0.80;;
3817;SDS011;1924;48.078;11.516;2024-02-23T15:13:43;29.10;;;0.80;;
3817;SDS011;1924;48.078;11.516;2024-02-23T15:16:09;29.10;;;0.80;;
3817;SDS011;1924;48.078;11.516;2024-02-23T15:18:37;28.87;;;0.80;;
3817;SDS011;1924;48.078;11.516;2024-02-23T15:21:04;29.10;;;0.80;;
3817;SDS011;1924;48.078;11.516;2024-02-23T15:23:31;29.00;;;0.80;;
3817;SDS011;1924;48.078;11.516;2024-02-23T15:25:58;29.10;;;0.80;;
3817;SDS011;1924;48.078;11.516;2024-02-23T15:28:24;28.67;;;0.80;;
3817;SDS011;1924;48.078;11.516;2024-02-23T15:30:51;29.00;;;0.80;;
3817;SDS011;1924;48.078;11.516;2024-02-23T15:33:18;29.10;;;0.80;;
3817;SDS011;1924;48.078;11.516;2024-02-23T15:35:46;29.20;;;0.80;;
3817;SDS011;1924;48.078;11.516;2024-02-23T15:38:13;29.00;;;0.80;;
3817;SDS011;1924;48.078;11.516;2024-02-23T15:40:39;28.90;;;0.80;;
3817;SDS011;1924;48.078;11.516;2024-02-23T15:43:06;29.10;;;0.80;;
3817;SDS011;1924;48.078;11.516;2024-02-23T15:45:33;28.87;;;0.80;;
3817;SDS011;1924;48.078;11.516;2024-02-23T15:48:00;29.10;;;0.80;;
3817;SDS011;1924;48.078;11.516;2024-02-23T15:50:26;28.90;;;0.80;;
3817;SDS011;1924;48.078;11.516;2024-02-23T15:52:57;28.80;;;0.80;;
3817;SDS011;1924;48.078;11.516;2024-02-23T15:55:24;29.00;;;0.80;;
3817;SDS011;1924;48.078;11.516;2024-02-23T15:57:51;29.10;;;0.80;;
3817;SDS011;1924;48.078;11.516;2024-02-23T16:00:17;28.80;;;0.80;;
3817;SDS011;1924;48.078;11.516;2024-02-23T16:02:45;28.67;;;0.80;;
3817;SDS011;1924;48.078;11.516;2024-02-23T16:05:11;28.77;;;0.80;;
3817;SDS011;1924;48.078;11.516;2024-02-23T16:07:38;29.00;;;0.80;;
3817;SDS011;1924;48.078;11.516;2024-02-23T16:10:07;29.00;;;0.80;;
3817;SDS011;1924;48.078;11.516;2024-02-23T16:12:34;29.17;;;0.80;;
3817;SDS011;1924;48.078;11.516;2024-02-23T16:15:01;29.00;;;0.80;;
3817;SDS011;1924;48.078;11.516;2024-02-23T16:17:28;28.80;;;0.80;;
3817;SDS011;1924;48.078;11.516;2024-02-23T16:19:55;29.10;;;0.80;;
3817;SDS011;1924;48.078;11.516;2024-02-23T16:22:22;28.90;;;0.80;;
3817;SDS011;1924;48.078;11.516;2024-02-23T16:24:49;29.00;;;0.80;;
3817;SDS011;1924;48.078;11.516;2024-02-23T16:27:19;29.10;;;0.80;;
3817;SDS011;1924;48.078;11.516;2024-02-23T16:29:45;28.90;;;0.80;;
3817;SDS011;1924;48.078;11.516;2024-02-23T16:32:12;29.00;;;0.80;;
3817;SDS011;1924;48.078;11.516;2024-02-23T16:34:42;29.00;;;0.80;;
3817;SDS011;1924;48.078;11.516;2024-02-23T16:37:09;29.10;;;0.80;;
3817;SDS011;1924;48.078;11.516;2024-02-23T16:39:35;29.07;;;0.80;;
3817;SDS011;1924;48.078;11.516;2024-02-23T16:42:03;29.10;;;0.80;;
3817;SDS011;1924;48.078;11.516;2024-02-23T16:44:31;28.90;;;0.90;;
3817;SDS011;1924;48.078;11.516;2024-02-23T16:46:58;29.00;;;0.80;;
3817;SDS011;1924;48.078;11.516;2024-02-23T16:49:25;29.00;;;0.80;;
3817;SDS011;1924;48.078;11.516;2024-02-23T16:51:51;29.00;;;0.80;;
3817;SDS011;1924;48.078;11.516;2024-02-23T16:54:18;28.87;;;0.80;;
3817;SDS011;1924;48.078;11.516;2024-02-23T16:56:46;28.90;;;0.80;;
3817;SDS011;1924;48.078;11.516;2024-02-23T16:59:12;28.90;;;0.80;;
3817;SDS011;1924;48.078;11.516;2024-02-23T17:01:41;28.90;;;0.80;;
3817;SDS011;1924;48.078;11.516;2024-02-23T17:04:09;28.90;;;0.80;;
3817;SDS011;1924;48.078;11.516;2024-02-23T17:06:36;29.00;;;0.80;;
3817;SDS011;1924;48.078;11.516;2024-02-23T17:09:02;28.90;;;0.80;;
3817;SDS011;1924;48.078;11.516;2024-02-23T17:11:32;28.90;;;0.80;;
3817;SDS011;1924;48.078;11.516;2024-02-23T17:13:59;28.90;;;0.80;;
3817;SDS011;1924;48.078;11.516;2024-02-23T17:16:25;28.77;;;0.80;;
3817;SDS011;1924;48.078;11.516;2024-02-23T17:18:55;28.80;;;0.80;;
3817;SDS011;1924;48.078;11.516;2024-02-23T17:21:22;28.90;;;0.80;;
3817;SDS011;1924;48.078;11.516;2024-02-23T17:23:49;28.90;;;0.80;;
3817;SDS011;1924;48.078;11.516;2024-02-23T17:26:16;28.80;;;0.80;;
3817;SDS011;1924;48.078;11.516;2024-02-23T17:28:43;28.70;;;0.80;;
3817;SDS011;1924;48.078;11.516;2024-02-23T17:31:11;28.60;;;0.80;;
3817;SDS011;1924;48.078;11.516;2024-02-23T17:33:37;28.93;;;0.80;;
3817;SDS011;1924;48.078;11.516;2024-02-23T17:36:06;28.90;;;0.80;;
3817;SDS011;1924;48.078;11.516;2024-02-23T17:38:33;29.00;;;0.80;;
3817;SDS011;1924;48.078;11.516;2024-02-23T17:40:59;28.70;;;0.80;;
3817;SDS011;1924;48.078;11.516;2024-02-23T17:43:26;28.80;;;0.80;;
3817;SDS011;1924;48.078;11.516;2024-02-23T17:45:53;28.80;;;0.80;;
3817;SDS011;1924;48.078;11.516;2024-02-23T17:48:19;28.90;;;0.80;;
3817;SDS011;1924;48.078;11.516;2024-02-23T17:50:46;28.80;;;0.80;;
3817;SDS011;1924;48.078;11.516;2024-02-23T17:53:14;28.80;;;0.80;;
3817;SDS011;1924;48.078;11.516;2024-02-23T17:55:41;28.80;;;0.80;;
3817;SDS011;1924;48.078;11.516;2024-02-23T17:58:08;28.87;;;0.80;;
3817;SDS011;1924;48.078;11.516;2024-02-23T18:00:35;28.77;;;0.83;;
3817;SDS011;1924;48.078;11.516;2024-02-23T18:03:02;28.70;;;0.80;;
3817;SDS011;1924;48.078;11.516;2024-02-23T18:05:29;28.80;;;0.80;;
3817;SDS011;1924;48.078;11.516;2024-02-23T18:07:56;28.80;;;0.80;;
3817;SDS011;1924;48.078;11.516;2024-02-23T18:10:24;29.00;;;0.80;;
3817;SDS011;1924;48.078;11.516;2024-02-23T18:12:51;28.77;;;0.83;;
3817;SDS011;1924;48.078;11.516;2024-02-23T18:15:17;28.90;;;0.80;;
3817;SDS011;1924;48.078;11.516;2024-02-23T18:17:44;28.90;;;0.80;;
3817;SDS011;1924;48.078;11.516;2024-02-23T18:20:11;28.80;;;0.80;;
3817;SDS011;1924;48.078;11.516;2024-02-23T18:22:39;28.70;;;0.80;;
3817;SDS011;1924;48.078;11.516;2024-02-23T18:25:06;28.90;;;0.80;;
3817;SDS011;1924;48.078;11.516;2024-02-23T18:27:34;29.00;;;0.90;;
3817;SDS011;1924;48.078;11.516;2024-02-23T18:30:02;28.70;;;0.80;;
3817;SDS011;1924;48.078;11.516;2024-02-23T18:32:29;28.70;;;0.80;;
3817;SDS011;1924;48.078;11.516;2024-02-23T18:34:55;28.70;;;0.80;;
3817;SDS011;1924;48.078;11.516;2024-02-23T18:37:22;28.60;;;0.80;;